createdAt,value
2023-01-23T00:00:59.135Z,2.15
2023-01-23T00:08:36.450Z,2.15
2023-01-23T00:16:12.381Z,2.17
2023-01-23T00:23:49.325Z,2.18
2023-01-23T00:31:25.706Z,2.20
2023-01-23T00:39:01.583Z,2.18
2023-01-23T00:46:35.524Z,2.17
2023-01-23T00:54:11.017Z,2.17
2023-01-23T01:01:45.274Z,2.13
2023-01-23T01:09:20.504Z,2.11
2023-01-23T01:16:54.482Z,2.15
2023-01-23T01:24:29.660Z,2.17
2023-01-23T01:32:03.518Z,2.12
2023-01-23T01:39:38.737Z,2.15
2023-01-23T01:47:16.031Z,2.16
2023-01-23T01:54:54.883Z,2.18
2023-01-23T02:02:32.913Z,2.16
2023-01-23T02:10:11.070Z,2.17
2023-01-23T02:17:46.348Z,2.17
2023-01-23T02:25:31.587Z,2.19
2023-01-23T02:33:11.229Z,2.22
2023-01-23T02:40:45.034Z,2.21
2023-01-23T02:48:20.222Z,2.18
2023-01-23T02:55:54.040Z,2.16
2023-01-23T03:03:30.591Z,2.18
2023-01-23T03:11:05.680Z,2.17
2023-01-23T03:18:53.558Z,2.15
2023-01-23T03:26:28.365Z,2.19
2023-01-23T03:34:03.872Z,2.16
2023-01-23T03:41:39.168Z,2.19
2023-01-23T03:49:14.411Z,2.14
2023-01-23T03:56:48.334Z,2.13
2023-01-23T04:04:23.476Z,2.14
2023-01-23T04:11:58.811Z,2.14
2023-01-23T04:19:34.270Z,2.18
2023-01-23T04:27:08.041Z,2.16
2023-01-23T04:34:43.297Z,2.17
2023-01-23T04:42:17.044Z,2.15
2023-01-23T04:49:52.283Z,2.17
2023-01-23T04:57:26.099Z,2.20
2023-01-23T05:05:01.260Z,2.18
2023-01-23T05:12:35.592Z,2.15
2023-01-23T05:20:11.705Z,2.13
2023-01-23T05:27:45.518Z,2.12
2023-01-23T05:35:20.748Z,2.08
2023-01-23T05:42:54.612Z,2.11
2023-01-23T05:50:29.785Z,2.13
2023-01-23T05:58:03.592Z,2.13
2023-01-23T06:05:38.719Z,2.14
2023-01-23T06:13:13.724Z,2.15
2023-01-23T06:20:48.946Z,2.12
2023-01-23T06:28:22.746Z,2.11
2023-01-23T06:36:00.367Z,2.17
2023-01-23T06:43:34.137Z,2.14
2023-01-23T06:51:09.752Z,2.13
2023-01-23T06:58:46.133Z,2.13
2023-01-23T07:06:21.356Z,2.10
2023-01-23T07:13:56.452Z,2.13
2023-01-23T07:21:31.763Z,2.13
2023-01-23T07:29:08.990Z,2.08
2023-01-23T07:36:44.176Z,2.08
2023-01-23T07:44:20.607Z,2.14
2023-01-23T07:51:55.841Z,2.15
2023-01-23T07:59:30.921Z,2.13
2023-01-23T08:07:06.796Z,2.14
2023-01-23T08:14:41.691Z,2.15
2023-01-23T08:22:16.890Z,2.11
2023-01-23T08:29:50.715Z,2.14
2023-01-23T08:37:26.060Z,2.18
2023-01-23T08:44:59.933Z,2.23
2023-01-23T08:52:35.384Z,2.22
2023-01-23T09:00:11.569Z,2.23
2023-01-23T09:07:46.813Z,2.21
2023-01-23T09:15:21.791Z,2.23
2023-01-23T09:22:56.978Z,2.28
2023-01-23T09:30:30.903Z,2.29
2023-01-23T09:38:07.871Z,2.29
2023-01-23T09:45:45.301Z,2.28
2023-01-23T09:53:24.412Z,2.25
2023-01-23T10:00:59.282Z,2.28
2023-01-23T10:08:45.060Z,2.31
2023-01-23T10:16:49.172Z,2.30
2023-01-23T10:24:40.892Z,2.36
2023-01-23T10:32:24.427Z,2.42
2023-01-23T10:40:04.095Z,2.41
2023-01-23T10:47:44.053Z,2.40
2023-01-23T10:55:31.573Z,2.48
2023-01-23T11:03:28.966Z,2.51
2023-01-23T11:11:25.220Z,2.54
2023-01-23T11:19:13.563Z,2.55
2023-01-23T11:26:59.008Z,2.61
2023-01-23T11:34:39.525Z,2.65
2023-01-23T11:42:18.471Z,2.65
2023-01-23T11:50:12.981Z,2.67
2023-01-23T11:58:02.647Z,2.74
2023-01-23T12:06:19.229Z,2.81
2023-01-23T12:14:01.380Z,2.86
2023-01-23T12:21:47.465Z,2.88
2023-01-23T12:29:46.072Z,2.92
2023-01-23T12:37:40.722Z,2.88
2023-01-23T12:45:24.037Z,2.91
2023-01-23T12:53:04.603Z,2.92
2023-01-23T13:00:50.660Z,2.90
2023-01-23T13:08:32.384Z,2.95
2023-01-23T13:16:14.832Z,2.93
2023-01-23T13:24:09.233Z,2.94
2023-01-23T13:31:47.773Z,2.96
2023-01-23T13:39:29.450Z,2.97
2023-01-23T14:27:29.514Z,2.99
2023-01-23T14:35:17.688Z,2.96
2023-01-23T14:42:57.851Z,2.96
2023-01-23T14:50:33.733Z,2.92
2023-01-23T14:58:08.792Z,2.91
2023-01-23T15:05:59.530Z,2.92
2023-01-23T15:13:41.131Z,2.93
2023-01-23T15:21:26.764Z,2.94
2023-01-23T15:29:03.922Z,2.92
2023-01-23T15:36:39.572Z,2.85
2023-01-23T15:44:15.503Z,2.85
2023-01-23T15:51:50.951Z,2.86
2023-01-23T15:59:24.822Z,2.78
2023-01-23T16:07:06.114Z,2.78
2023-01-23T16:14:40.551Z,2.78
2023-01-23T16:22:18.936Z,2.73
2023-01-23T16:29:53.150Z,2.73
2023-01-23T16:37:29.975Z,2.73
2023-01-23T16:45:04.118Z,2.71
2023-01-23T16:52:39.776Z,2.67
2023-01-23T17:00:24.906Z,2.67
2023-01-23T17:08:17.359Z,2.68
2023-01-23T17:15:54.119Z,2.61
2023-01-23T17:23:29.385Z,2.59
2023-01-23T17:31:05.166Z,2.55
2023-01-23T17:38:42.233Z,2.56
2023-01-23T17:46:23.007Z,2.57
2023-01-23T17:53:58.963Z,2.55
2023-01-23T18:01:32.826Z,2.54
2023-01-23T18:09:08.226Z,2.57
2023-01-23T18:16:45.280Z,2.52
2023-01-23T18:24:28.344Z,2.48
2023-01-23T18:32:24.493Z,2.50
2023-01-23T18:40:10.539Z,2.49
2023-01-23T18:47:44.539Z,2.45
2023-01-23T18:55:30.041Z,2.45
2023-01-23T19:03:13.826Z,2.47
2023-01-23T19:10:50.461Z,2.47
2023-01-23T19:18:46.711Z,2.41
2023-01-23T19:26:23.132Z,2.44
2023-01-23T19:33:57.943Z,2.41
2023-01-23T19:41:41.363Z,2.39
2023-01-23T19:49:15.320Z,2.37
2023-01-23T19:56:50.750Z,2.38
2023-01-23T20:04:25.312Z,2.39
2023-01-23T20:12:00.513Z,2.40
2023-01-23T20:19:34.310Z,2.42
2023-01-23T20:27:09.470Z,2.41
2023-01-23T20:34:43.667Z,2.40
2023-01-23T20:42:18.822Z,2.40
2023-01-23T20:49:52.737Z,2.37
2023-01-23T20:57:48.042Z,2.37
2023-01-23T21:05:22.144Z,2.35
2023-01-23T21:12:57.821Z,2.35
2023-01-23T21:20:31.733Z,2.35
2023-01-23T21:28:07.083Z,2.30
2023-01-23T21:35:41.161Z,2.30
2023-01-23T21:43:16.494Z,2.29
2023-01-23T21:50:50.322Z,2.28
2023-01-23T21:58:25.640Z,2.26
2023-01-23T22:05:59.645Z,2.26
2023-01-23T22:13:35.644Z,2.24
2023-01-23T22:21:10.087Z,2.22
2023-01-23T22:28:45.032Z,2.13
2023-01-23T22:36:22.956Z,2.13
2023-01-23T22:43:59.518Z,2.09
2023-01-23T22:51:33.564Z,2.05
2023-01-23T22:59:08.704Z,2.03
2023-01-23T23:06:42.527Z,1.98
2023-01-23T23:14:17.699Z,1.97
2023-01-23T23:21:51.569Z,1.93
2023-01-23T23:29:26.837Z,1.92
2023-01-23T23:37:01.666Z,1.92
2023-01-23T23:44:36.832Z,1.91
2023-01-23T23:52:10.610Z,1.93
2023-01-23T23:59:45.893Z,1.92
